Time;durP1;ratioP1;P1;durP2;ratioP2;P2;SDS_P1;SDS_P2;PMS_P1;PMS_P2;Temp;Humidity;BMP_temperature;BMP_pressure;BME280_temperature;BME280_humidity;BME280_pressure;Samples;Min_cycle;Max_cycle;Signal;HPM_P1;HPM_P2
2022/07/16 00:02:50;;;;;;;1.30;0.85;;;18.50;87.00;;;;;;5105870;28;20034;-35
2022/07/16 00:05:16;;;;;;;1.23;0.98;;;18.50;87.10;;;;;;5104762;28;20023;-35
2022/07/16 00:07:42;;;;;;;1.23;0.80;;;18.50;87.20;;;;;;5104565;28;20020;-35
2022/07/16 00:10:08;;;;;;;1.60;0.90;;;18.60;87.30;;;;;;5105568;28;20020;-35
2022/07/16 00:12:33;;;;;;;0.90;0.90;;;18.50;87.50;;;;;;5106032;28;20387;-35
2022/07/16 00:14:59;;;;;;;1.73;1.00;;;18.50;87.80;;;;;;5104820;28;20490;-37
2022/07/16 00:17:25;;;;;;;1.10;0.88;;;18.50;88.10;;;;;;5104550;28;20023;-35
2022/07/16 00:19:50;;;;;;;1.17;0.90;;;18.50;88.30;;;;;;5105230;28;20016;-34
2022/07/16 00:22:16;;;;;;;1.25;1.00;;;18.40;88.50;;;;;;5104789;28;20048;-34
2022/07/16 00:24:41;;;;;;;1.25;0.80;;;18.40;88.80;;;;;;5105189;28;20023;-35
2022/07/16 00:27:07;;;;;;;1.38;1.27;;;18.40;88.90;;;;;;5105219;28;20028;-34
2022/07/16 00:29:32;;;;;;;1.80;1.10;;;18.40;89.10;;;;;;5104936;28;20016;-35
2022/07/16 00:31:58;;;;;;;2.17;1.58;;;18.40;89.20;;;;;;5105151;28;20027;-36
2022/07/16 00:34:24;;;;;;;2.20;1.10;;;18.40;89.30;;;;;;5103897;28;20096;-34
2022/07/16 00:36:50;;;;;;;1.20;1.02;;;18.50;89.40;;;;;;5105233;28;20107;-34
2022/07/16 00:39:17;;;;;;;1.85;1.00;;;18.50;89.50;;;;;;5105060;28;20028;-34
2022/07/16 00:41:44;;;;;;;1.42;1.30;;;18.50;89.60;;;;;;5104375;28;20520;-34
2022/07/16 00:44:12;;;;;;;1.27;1.00;;;18.50;89.80;;;;;;5105141;28;20459;-35
2022/07/16 00:46:39;;;;;;;1.60;1.17;;;18.50;89.80;;;;;;5104473;28;20042;-34
2022/07/16 00:49:06;;;;;;;1.35;1.00;;;18.60;89.80;;;;;;5104963;28;20126;-35
2022/07/16 00:51:32;;;;;;;1.02;0.93;;;18.50;89.80;;;;;;5104587;28;20055;-35
2022/07/16 00:53:58;;;;;;;1.85;1.20;;;18.60;89.90;;;;;;5105329;28;20093;-35
2022/07/16 00:56:25;;;;;;;1.23;1.05;;;18.60;90.00;;;;;;5103553;28;20399;-34
2022/07/16 00:58:52;;;;;;;1.25;1.15;;;18.60;90.00;;;;;;5105608;28;20027;-34
2022/07/16 01:01:18;;;;;;;1.30;1.20;;;18.60;90.00;;;;;;5107046;28;20118;-35
2022/07/16 01:03:45;;;;;;;2.13;1.33;;;18.60;90.00;;;;;;5107321;28;20491;-35
2022/07/16 01:06:11;;;;;;;1.05;0.95;;;18.60;90.00;;;;;;5108287;28;20020;-34
2022/07/16 01:08:41;;;;;;;2.15;1.00;;;18.70;90.00;;;;;;5107669;28;20043;-33
2022/07/16 01:11:09;;;;;;;1.83;1.20;;;18.60;90.10;;;;;;5108158;28;20355;-35
2022/07/16 01:13:38;;;;;;;1.45;1.20;;;18.70;90.20;;;;;;5108932;28;20038;-35
2022/07/16 01:16:04;;;;;;;1.23;1.10;;;18.60;90.20;;;;;;5108790;28;20035;-33
2022/07/16 01:18:30;;;;;;;1.30;1.08;;;18.60;90.30;;;;;;5107286;28;20023;-34
2022/07/16 01:20:56;;;;;;;1.98;1.25;;;18.60;90.30;;;;;;5108657;28;20127;-36
2022/07/16 01:23:23;;;;;;;1.92;0.90;;;18.60;90.40;;;;;;5107014;28;20577;-33
2022/07/16 01:25:49;;;;;;;3.10;1.20;;;18.50;90.50;;;;;;5108431;28;20391;-34
2022/07/16 01:28:15;;;;;;;2.83;1.40;;;18.50;90.50;;;;;;5107990;28;20106;-34
2022/07/16 01:30:41;;;;;;;2.33;1.20;;;18.50;90.70;;;;;;5107374;28;20396;-34
2022/07/16 01:33:25;;;;;;;1.90;1.20;;;18.50;90.70;;;;;;5107842;28;20024;-34
2022/07/16 01:35:58;;;;;;;4.43;1.60;;;18.50;90.80;;;;;;5087875;28;20119;-35
2022/07/16 01:38:23;;;;;;;2.00;1.40;;;18.40;90.80;;;;;;5104490;28;20030;-35
2022/07/16 01:40:49;;;;;;;2.65;1.50;;;18.50;90.90;;;;;;5108205;28;20032;-36
2022/07/16 01:43:21;;;;;;;1.40;1.13;;;18.50;90.90;;;;;;5108203;28;20031;-34
2022/07/16 01:45:47;;;;;;;1.60;1.40;;;18.50;90.90;;;;;;5106830;28;20138;-35
2022/07/16 01:48:13;;;;;;;1.83;1.25;;;18.50;90.90;;;;;;5107372;28;20031;-34
2022/07/16 01:50:42;;;;;;;1.55;1.35;;;18.50;90.90;;;;;;5107467;28;20308;-36
2022/07/16 01:53:08;;;;;;;1.92;1.33;;;18.50;91.00;;;;;;5107268;28;20028;-33
2022/07/16 01:55:34;;;;;;;4.28;1.60;;;18.50;91.00;;;;;;5107148;28;20038;-34
2022/07/16 01:58:01;;;;;;;1.83;1.10;;;18.50;91.10;;;;;;5107340;28;20027;-34
2022/07/16 02:00:27;;;;;;;1.92;1.45;;;18.50;91.10;;;;;;5106345;28;20161;-34
2022/07/16 02:02:52;;;;;;;1.52;1.10;;;18.60;91.10;;;;;;5107125;28;20497;-35
2022/07/16 02:05:18;;;;;;;3.53;1.20;;;18.60;91.10;;;;;;5107581;28;20494;-35
2022/07/16 02:07:44;;;;;;;2.70;1.40;;;18.60;91.20;;;;;;5106236;28;20028;-36
2022/07/16 02:10:10;;;;;;;2.65;1.40;;;18.60;91.20;;;;;;5106938;28;20206;-35
2022/07/16 02:12:35;;;;;;;3.50;1.40;;;18.60;91.30;;;;;;5105179;28;20019;-34
2022/07/16 02:15:01;;;;;;;3.08;1.30;;;18.60;91.40;;;;;;5107453;28;20378;-35
2022/07/16 02:17:26;;;;;;;1.33;1.23;;;18.50;91.30;;;;;;5106370;28;20605;-34
2022/07/16 02:19:52;;;;;;;1.70;1.20;;;18.50;91.50;;;;;;5106345;28;20027;-35
2022/07/16 02:22:17;;;;;;;2.15;1.30;;;18.50;91.50;;;;;;5106331;28;20039;-33
2022/07/16 02:24:43;;;;;;;3.67;1.30;;;18.50;91.50;;;;;;5106340;28;20123;-35
2022/07/16 02:27:09;;;;;;;1.45;1.27;;;18.60;91.60;;;;;;5106421;28;20059;-34
2022/07/16 02:29:34;;;;;;;1.95;1.20;;;18.50;91.70;;;;;;5106140;28;20699;-34
2022/07/16 02:32:00;;;;;;;2.78;1.20;;;18.50;91.70;;;;;;5106605;28;20473;-35
2022/07/16 02:34:25;;;;;;;2.33;1.42;;;18.50;91.80;;;;;;5105094;28;20035;-35
2022/07/16 02:36:51;;;;;;;1.88;1.40;;;18.50;92.00;;;;;;5106660;28;20030;-34
2022/07/16 02:39:16;;;;;;;3.00;1.52;;;18.50;92.10;;;;;;5103545;28;20027;-35
2022/07/16 02:41:42;;;;;;;2.78;1.50;;;18.40;92.10;;;;;;5096375;28;20084;-35
2022/07/16 02:44:08;;;;;;;1.77;1.30;;;18.40;92.10;;;;;;5106781;28;20029;-35
2022/07/16 02:46:33;;;;;;;2.13;1.27;;;18.40;92.20;;;;;;5105952;28;20359;-35
2022/07/16 02:48:59;;;;;;;2.20;1.30;;;18.40;92.20;;;;;;5105756;28;20040;-35
2022/07/16 02:51:25;;;;;;;1.63;1.20;;;18.40;92.30;;;;;;5106612;28;20054;-34
2022/07/16 02:53:50;;;;;;;2.10;1.33;;;18.40;92.40;;;;;;5106465;28;20039;-36
2022/07/16 02:56:16;;;;;;;1.98;1.42;;;18.40;92.40;;;;;;5105122;28;20494;-35
2022/07/16 02:58:41;;;;;;;1.50;1.35;;;18.30;92.50;;;;;;5105830;28;20458;-36
2022/07/16 03:01:07;;;;;;;1.50;1.40;;;18.30;92.60;;;;;;5105936;28;20027;-35
2022/07/16 03:03:33;;;;;;;1.98;1.52;;;18.30;93.00;;;;;;5105243;28;20546;-35
2022/07/16 03:05:58;;;;;;;3.03;1.42;;;18.20;92.80;;;;;;5105975;28;20027;-34
2022/07/16 03:08:24;;;;;;;2.88;1.45;;;18.20;92.80;;;;;;5105909;28;20028;-34
2022/07/16 03:10:50;;;;;;;3.33;1.90;;;18.20;93.00;;;;;;5105028;28;20023;-36
2022/07/16 03:13:15;;;;;;;3.40;1.70;;;18.10;93.00;;;;;;5105920;28;20050;-35
2022/07/16 03:15:41;;;;;;;2.45;1.20;;;18.10;93.20;;;;;;5105364;28;20050;-34
2022/07/16 03:18:06;;;;;;;1.92;1.42;;;18.10;93.30;;;;;;5105845;28;20070;-36
2022/07/16 03:20:32;;;;;;;1.85;1.40;;;18.00;93.50;;;;;;5104980;28;20193;-35
2022/07/16 03:22:58;;;;;;;1.90;1.60;;;18.00;93.50;;;;;;5104990;28;20116;-35
2022/07/16 03:25:23;;;;;;;3.78;1.67;;;18.00;93.60;;;;;;5105391;28;20023;-35
2022/07/16 03:27:49;;;;;;;2.75;1.52;;;17.90;93.70;;;;;;5105948;28;20020;-35
2022/07/16 03:30:15;;;;;;;1.95;1.55;;;17.90;93.70;;;;;;5104778;28;20599;-43
2022/07/16 03:32:40;;;;;;;2.22;1.70;;;17.90;93.80;;;;;;5105166;28;20631;-34
2022/07/16 03:35:07;;;;;;;3.10;1.95;;;17.90;94.00;;;;;;5105879;28;20036;-35
2022/07/16 03:37:33;;;;;;;5.05;1.85;;;17.90;94.00;;;;;;5104509;28;20031;-35
2022/07/16 03:39:59;;;;;;;4.50;1.60;;;17.90;94.10;;;;;;5105990;28;20550;-34
2022/07/16 03:42:24;;;;;;;3.22;1.85;;;18.00;94.10;;;;;;5105110;28;20557;-36
2022/07/16 03:44:50;;;;;;;3.35;1.90;;;17.90;94.20;;;;;;5105346;28;20023;-34
2022/07/16 03:47:16;;;;;;;3.75;2.00;;;17.90;94.30;;;;;;5104577;28;20023;-34
2022/07/16 03:49:41;;;;;;;2.42;1.83;;;17.90;94.40;;;;;;5105560;28;20623;-36
2022/07/16 03:52:07;;;;;;;4.07;2.30;;;17.90;94.50;;;;;;5104339;28;20016;-36
2022/07/16 03:54:32;;;;;;;3.67;2.15;;;17.90;94.70;;;;;;5104733;28;20115;-35
2022/07/16 03:56:58;;;;;;;5.43;2.28;;;17.90;94.70;;;;;;5105613;28;20032;-34
2022/07/16 03:59:23;;;;;;;3.08;1.90;;;17.90;94.80;;;;;;5104197;28;20072;-34
2022/07/16 04:01:49;;;;;;;6.35;3.08;;;17.90;94.90;;;;;;5104926;28;20104;-35
2022/07/16 04:04:14;;;;;;;3.80;2.80;;;17.80;95.60;;;;;;5105257;28;20241;-34
2022/07/16 04:06:40;;;;;;;3.40;2.72;;;17.80;95.50;;;;;;5104459;28;20102;-35
2022/07/16 04:09:05;;;;;;;3.20;2.17;;;17.80;95.50;;;;;;5105131;28;20111;-34
2022/07/16 04:11:31;;;;;;;4.10;3.03;;;17.80;95.50;;;;;;5104213;28;20034;-34
2022/07/16 04:13:58;;;;;;;4.13;2.40;;;17.70;95.90;;;;;;5104677;28;20035;-33
2022/07/16 04:16:23;;;;;;;4.78;2.42;;;17.70;95.80;;;;;;5104645;28;20032;-34
2022/07/16 04:18:49;;;;;;;2.88;1.98;;;17.70;95.80;;;;;;5105546;28;20026;-34
2022/07/16 04:21:14;;;;;;;2.85;2.10;;;17.70;95.90;;;;;;5104963;28;20108;-35
2022/07/16 04:23:40;;;;;;;4.63;2.05;;;17.70;95.90;;;;;;5104154;28;20096;-34
2022/07/16 04:26:05;;;;;;;2.30;1.60;;;17.70;95.90;;;;;;5105071;28;20039;-35
2022/07/16 04:28:31;;;;;;;7.38;3.22;;;17.70;96.00;;;;;;5104507;28;20514;-35
2022/07/16 04:30:57;;;;;;;4.75;2.95;;;17.70;97.40;;;;;;5105015;28;20035;-35
2022/07/16 04:33:22;;;;;;;3.60;3.00;;;17.70;97.80;;;;;;5104295;28;20047;-33
2022/07/16 04:35:48;;;;;;;2.83;2.05;;;17.60;98.20;;;;;;5106155;28;20040;-35
2022/07/16 04:38:14;;;;;;;3.85;2.75;;;17.60;98.20;;;;;;5109216;28;20028;-35
2022/07/16 04:40:40;;;;;;;3.05;2.30;;;17.60;98.80;;;;;;5107902;28;20106;-36
2022/07/16 04:43:05;;;;;;;3.78;2.13;;;17.50;99.00;;;;;;5108808;28;20031;-36
2022/07/16 04:45:31;;;;;;;4.07;3.03;;;17.60;98.90;;;;;;5108371;28;20031;-37
2022/07/16 04:47:56;;;;;;;3.28;2.30;;;17.60;99.40;;;;;;5107707;28;20107;-36
2022/07/16 04:50:22;;;;;;;4.85;2.45;;;17.50;99.90;;;;;;5108667;28;20038;-36
2022/07/16 04:52:47;;;;;;;2.00;1.70;;;17.50;99.50;;;;;;5109017;28;20059;-35
2022/07/16 04:55:13;;;;;;;6.20;2.67;;;17.60;99.40;;;;;;5107569;28;20031;-35
2022/07/16 04:57:38;;;;;;;3.20;2.28;;;17.60;99.90;;;;;;5108697;28;20058;-36
2022/07/16 05:00:05;;;;;;;5.10;2.20;;;17.60;99.90;;;;;;5108226;28;20526;-36
2022/07/16 05:05:19;;;;;;;7.25;3.20;;;17.60;99.90;;;;;;5108253;28;20512;-35
2022/07/16 05:07:46;;;;;;;1.67;1.58;;;17.60;99.90;;;;;;5108558;28;20418;-36
2022/07/16 05:10:11;;;;;;;3.60;2.00;;;17.70;99.90;;;;;;5107943;28;20031;-35
2022/07/16 05:12:37;;;;;;;2.83;1.85;;;17.80;99.90;;;;;;5107509;28;20027;-33
2022/07/16 05:15:03;;;;;;;3.85;2.38;;;17.80;99.90;;;;;;5108136;28;20121;-34
2022/07/16 05:17:28;;;;;;;2.05;1.70;;;17.70;99.90;;;;;;5107061;28;20028;-35
2022/07/16 05:19:54;;;;;;;1.98;1.60;;;17.70;99.90;;;;;;5108128;28;20023;-35
2022/07/16 05:22:19;;;;;;;2.05;1.65;;;17.70;99.90;;;;;;5107385;28;20052;-35
2022/07/16 05:24:45;;;;;;;2.75;1.60;;;17.70;99.90;;;;;;5107653;28;20039;-35
2022/07/16 05:27:10;;;;;;;3.20;1.60;;;17.70;99.90;;;;;;5108171;28;20011;-35
2022/07/16 05:29:36;;;;;;;1.70;1.10;;;17.70;99.90;;;;;;5107139;28;20157;-34
2022/07/16 05:32:01;;;;;;;3.85;1.95;;;17.70;99.90;;;;;;5108624;28;20072;-35
2022/07/16 05:34:27;;;;;;;2.13;1.83;;;17.70;99.90;;;;;;5107082;28;20015;-36
2022/07/16 05:36:53;;;;;;;4.55;1.70;;;17.60;99.90;;;;;;5106751;28;20076;-36
2022/07/16 05:39:18;;;;;;;3.08;1.70;;;17.70;99.90;;;;;;5107939;28;20027;-36
2022/07/16 05:41:44;;;;;;;3.35;1.75;;;17.70;99.90;;;;;;5107207;28;20024;-35
2022/07/16 05:44:09;;;;;;;2.25;1.65;;;17.70;99.90;;;;;;5107301;28;20015;-34
2022/07/16 05:46:35;;;;;;;3.22;1.40;;;17.80;99.90;;;;;;5106783;28;20039;-37
2022/07/16 05:49:00;;;;;;;3.72;1.67;;;17.80;99.90;;;;;;5107661;28;20069;-35
2022/07/16 05:51:26;;;;;;;2.22;1.40;;;17.90;99.90;;;;;;5106101;28;20027;-34
2022/07/16 05:53:51;;;;;;;2.40;1.27;;;17.90;99.90;;;;;;5107472;28;20390;-35
2022/07/16 05:56:17;;;;;;;2.17;1.00;;;18.00;99.90;;;;;;5106976;28;20130;-35
2022/07/16 05:58:42;;;;;;;5.03;1.40;;;18.10;99.90;;;;;;5106593;28;20375;-35
2022/07/16 06:01:08;;;;;;;3.38;1.17;;;18.10;99.90;;;;;;5107435;28;20034;-35
2022/07/16 06:03:36;;;;;;;2.17;1.10;;;18.10;99.90;;;;;;5107405;28;20019;-35
2022/07/16 06:06:02;;;;;;;2.58;1.17;;;18.10;99.90;;;;;;5106515;28;20031;-34
2022/07/16 06:08:28;;;;;;;4.63;0.95;;;18.20;99.90;;;;;;5106420;28;20054;-35
2022/07/16 06:10:53;;;;;;;2.70;1.20;;;18.30;99.90;;;;;;5107340;28;20122;-36
2022/07/16 06:13:19;;;;;;;2.35;1.20;;;18.20;99.90;;;;;;5106076;28;20024;-35
2022/07/16 06:15:48;;;;;;;3.53;1.20;;;18.20;99.70;;;;;;5106776;28;20048;-35
2022/07/16 06:18:13;;;;;;;2.17;1.20;;;18.30;99.60;;;;;;5106865;28;20027;-34
2022/07/16 06:20:39;;;;;;;2.50;1.27;;;18.30;99.40;;;;;;5106190;28;20023;-34
2022/07/16 06:23:04;;;;;;;1.85;1.20;;;18.30;99.30;;;;;;5106547;28;20083;-36
2022/07/16 06:25:30;;;;;;;2.80;1.30;;;18.40;99.30;;;;;;5106252;28;20130;-35
2022/07/16 06:27:55;;;;;;;1.75;0.90;;;18.40;99.20;;;;;;5105887;28;20395;-36
2022/07/16 06:30:21;;;;;;;2.08;1.10;;;18.40;99.10;;;;;;5106954;28;20134;-34
2022/07/16 06:32:46;;;;;;;3.13;1.10;;;18.50;99.00;;;;;;5103291;28;20493;-35
2022/07/16 06:35:12;;;;;;;1.50;1.00;;;18.60;98.60;;;;;;5105393;28;20047;-34
2022/07/16 06:37:38;;;;;;;3.10;1.15;;;18.60;98.40;;;;;;5105390;28;20541;-34
2022/07/16 06:40:05;;;;;;;3.17;1.33;;;18.60;98.10;;;;;;5105083;28;20023;-34
2022/07/16 06:42:30;;;;;;;5.13;1.30;;;18.60;97.80;;;;;;5104821;28;20114;-36
2022/07/16 06:44:56;;;;;;;2.20;1.23;;;18.70;97.50;;;;;;5106254;28;20103;-34
2022/07/16 06:47:21;;;;;;;2.17;1.33;;;18.70;97.40;;;;;;5104402;28;20269;-34
2022/07/16 06:49:47;;;;;;;2.72;1.23;;;18.80;97.70;;;;;;5105227;28;20100;-35
2022/07/16 06:52:12;;;;;;;1.92;0.90;;;18.80;97.10;;;;;;5105385;28;20380;-36
2022/07/16 06:54:38;;;;;;;1.38;0.70;;;18.80;96.60;;;;;;5104763;28;20401;-35
2022/07/16 06:57:03;;;;;;;3.83;0.90;;;18.90;96.10;;;;;;5105287;28;20031;-36
2022/07/16 06:59:29;;;;;;;2.50;1.08;;;18.90;96.00;;;;;;5104204;28;20020;-36
2022/07/16 07:01:55;;;;;;;3.45;1.20;;;19.00;95.80;;;;;;5104924;28;20024;-36
2022/07/16 07:04:20;;;;;;;4.22;1.02;;;19.10;95.60;;;;;;5105226;28;20027;-34
2022/07/16 07:06:46;;;;;;;2.38;0.90;;;19.20;95.50;;;;;;5105479;28;20043;-34
2022/07/16 07:09:11;;;;;;;3.58;1.10;;;19.30;95.70;;;;;;5104850;28;20023;-35
2022/07/16 07:11:38;;;;;;;2.22;1.23;;;19.40;94.50;;;;;;5105159;28;20074;-36
2022/07/16 07:14:04;;;;;;;2.33;1.00;;;19.40;94.30;;;;;;5104768;28;20046;-35
2022/07/16 07:16:29;;;;;;;2.10;1.00;;;19.50;94.00;;;;;;5103722;28;20380;-35
2022/07/16 07:18:55;;;;;;;2.70;1.00;;;19.50;94.10;;;;;;5104974;28;20482;-34
2022/07/16 07:21:20;;;;;;;1.73;0.80;;;19.60;94.10;;;;;;5103530;28;20034;-35
2022/07/16 07:23:46;;;;;;;3.63;0.90;;;19.50;93.60;;;;;;5103558;28;20040;-35
2022/07/16 07:26:11;;;;;;;2.28;0.88;;;19.50;93.30;;;;;;5105336;28;20023;-35
2022/07/16 07:28:37;;;;;;;1.88;0.90;;;19.50;93.10;;;;;;5104823;28;20027;-37
2022/07/16 07:31:02;;;;;;;2.78;1.00;;;19.40;92.10;;;;;;5104698;28;20031;-35
2022/07/16 07:33:28;;;;;;;1.73;0.90;;;19.40;92.10;;;;;;5104090;28;20047;-36
2022/07/16 07:35:54;;;;;;;1.55;0.70;;;19.40;92.20;;;;;;5105184;28;20502;-35
2022/07/16 07:38:19;;;;;;;0.75;0.60;;;19.30;91.90;;;;;;5103306;28;20106;-35
2022/07/16 07:40:45;;;;;;;1.50;0.65;;;19.30;92.00;;;;;;5104090;28;20489;-33
2022/07/16 07:43:11;;;;;;;1.67;0.70;;;19.30;91.90;;;;;;5104473;28;20772;-36
2022/07/16 07:45:38;;;;;;;1.67;0.80;;;19.30;91.90;;;;;;5103947;28;20039;-34
2022/07/16 07:48:04;;;;;;;1.35;0.80;;;19.30;91.20;;;;;;5105043;28;20020;-35
2022/07/16 07:50:30;;;;;;;1.02;0.70;;;19.30;91.50;;;;;;5103806;28;20387;-36
2022/07/16 07:52:55;;;;;;;3.47;0.85;;;19.30;91.30;;;;;;5104324;28;20031;-34
2022/07/16 07:55:21;;;;;;;1.85;0.70;;;19.40;91.30;;;;;;5105193;28;20123;-35
2022/07/16 07:57:46;;;;;;;2.20;0.93;;;19.50;91.20;;;;;;5104236;28;20123;-36
2022/07/16 08:00:12;;;;;;;3.40;0.80;;;19.60;90.70;;;;;;5104875;28;20119;-35
2022/07/16 08:02:41;;;;;;;3.03;1.00;;;19.60;90.70;;;;;;5104582;28;20529;-34
2022/07/16 08:05:09;;;;;;;2.17;0.80;;;19.60;90.20;;;;;;5102928;28;20031;-35
2022/07/16 08:07:35;;;;;;;2.15;0.80;;;19.70;89.80;;;;;;5103682;28;20055;-35
2022/07/16 08:10:00;;;;;;;2.70;0.80;;;19.60;89.10;;;;;;5105001;28;20434;-37
2022/07/16 08:12:26;;;;;;;2.00;0.73;;;19.60;89.40;;;;;;5107830;28;20445;-34
2022/07/16 08:14:51;;;;;;;2.28;0.80;;;19.50;89.60;;;;;;5108633;28;20031;-36
2022/07/16 08:17:17;;;;;;;3.13;0.98;;;19.50;89.70;;;;;;5108020;28;20028;-35
2022/07/16 08:19:42;;;;;;;1.67;0.80;;;19.50;90.00;;;;;;5107667;28;20031;-36
2022/07/16 08:22:08;;;;;;;2.85;1.10;;;19.40;89.20;;;;;;5107904;28;20051;-35
2022/07/16 08:27:18;;;;;;;1.75;1.00;;;19.50;88.50;;;;;;5107580;28;20043;-36
2022/07/16 08:29:43;;;;;;;1.40;0.80;;;19.50;89.00;;;;;;5108208;27;20024;-34
2022/07/16 08:32:09;;;;;;;1.98;0.90;;;19.50;88.50;;;;;;5106044;28;20039;-35
2022/07/16 08:34:34;;;;;;;3.78;1.15;;;19.60;87.80;;;;;;5106870;28;20532;-37
2022/07/16 08:37:01;;;;;;;2.78;0.90;;;19.60;88.30;;;;;;5108221;28;20031;-35
2022/07/16 08:39:27;;;;;;;2.33;0.90;;;19.60;88.20;;;;;;5106825;28;20035;-36
2022/07/16 08:41:53;;;;;;;0.85;0.40;;;19.60;88.70;;;;;;5107528;28;20075;-36
2022/07/16 08:44:19;;;;;;;3.08;0.68;;;19.70;88.90;;;;;;5105464;28;20519;-35
2022/07/16 08:46:45;;;;;;;1.65;0.90;;;19.80;88.70;;;;;;5105713;28;20020;-34
2022/07/16 08:49:11;;;;;;;3.90;0.82;;;19.90;87.80;;;;;;5107845;28;20015;-34
2022/07/16 08:51:39;;;;;;;1.05;0.65;;;19.90;87.80;;;;;;5107790;28;20064;-35
2022/07/16 08:54:15;;;;;;;2.22;0.77;;;19.90;87.90;;;;;;5107338;28;20031;-34
2022/07/16 08:56:43;;;;;;;1.40;0.73;;;19.80;88.20;;;;;;5107352;28;20074;-34
2022/07/16 08:59:09;;;;;;;1.13;0.70;;;19.80;87.80;;;;;;5108247;28;20060;-37
2022/07/16 09:01:34;;;;;;;1.80;0.80;;;19.90;87.60;;;;;;5106398;28;20027;-35
2022/07/16 09:04:01;;;;;;;1.83;0.75;;;19.90;85.40;;;;;;5107569;28;20368;-37
2022/07/16 09:06:27;;;;;;;1.75;0.80;;;19.90;85.90;;;;;;5106472;28;20380;-35
2022/07/16 09:08:53;;;;;;;2.20;0.73;;;19.90;85.80;;;;;;5107076;28;20530;-34
2022/07/16 09:11:29;;;;;;;3.55;0.80;;;19.80;83.60;;;;;;5106958;28;20027;-37
2022/07/16 09:14:02;;;;;;;2.15;0.90;;;19.80;82.90;;;;;;5107279;28;20026;-37
2022/07/16 09:16:39;;;;;;;1.77;0.65;;;19.70;82.40;;;;;;5106427;28;20198;-36
2022/07/16 09:19:06;;;;;;;1.65;0.80;;;19.60;82.80;;;;;;5107316;28;20045;-37
2022/07/16 09:21:32;;;;;;;1.80;0.70;;;19.50;83.20;;;;;;5106197;28;20023;-35
2022/07/16 09:23:58;;;;;;;2.15;0.90;;;19.60;82.90;;;;;;5106333;28;20514;-34
2022/07/16 09:26:27;;;;;;;1.88;0.90;;;19.60;82.60;;;;;;5106801;28;20031;-35
2022/07/16 09:28:53;;;;;;;3.42;0.80;;;19.60;82.10;;;;;;5105935;28;20016;-35
2022/07/16 09:31:41;;;;;;;1.70;0.70;;;19.60;82.40;;;;;;5107636;28;20027;-35
2022/07/16 09:34:09;;;;;;;1.23;0.55;;;19.70;83.00;;;;;;5107859;28;20059;-34
2022/07/16 09:36:37;;;;;;;2.30;0.90;;;19.80;82.50;;;;;;5106453;28;20120;-36
2022/07/16 09:39:07;;;;;;;1.00;0.55;;;19.90;81.80;;;;;;5107497;28;20051;-34
2022/07/16 09:41:44;;;;;;;2.83;0.90;;;19.90;81.70;;;;;;5107464;28;20032;-35
2022/07/16 09:44:41;;;;;;;2.13;0.82;;;19.90;81.00;;;;;;5106963;28;20055;-36
2022/07/16 09:47:09;;;;;;;2.00;0.88;;;19.90;80.10;;;;;;5086294;28;20093;-35
2022/07/16 09:49:37;;;;;;;1.80;0.70;;;19.90;79.10;;;;;;5094765;28;20547;-35
2022/07/16 09:52:04;;;;;;;1.80;0.70;;;19.90;78.70;;;;;;5106870;28;20019;-37
2022/07/16 09:54:33;;;;;;;1.88;0.60;;;19.80;79.50;;;;;;5105713;28;20102;-35
2022/07/16 09:57:07;;;;;;;1.95;0.70;;;19.80;79.60;;;;;;5106502;28;20499;-37
2022/07/16 09:59:33;;;;;;;1.30;0.68;;;19.90;79.20;;;;;;5106208;28;20111;-34
2022/07/16 10:01:59;;;;;;;2.50;0.65;;;19.90;79.60;;;;;;5107196;28;20102;-34
2022/07/16 10:04:24;;;;;;;2.40;0.93;;;20.00;79.70;;;;;;5106190;28;20399;-35
2022/07/16 10:06:50;;;;;;;2.13;0.80;;;20.00;80.00;;;;;;5106777;28;20042;-35
2022/07/16 10:09:16;;;;;;;2.03;0.63;;;20.10;78.40;;;;;;5106669;28;20035;-35
2022/07/16 10:11:43;;;;;;;1.35;0.65;;;20.10;78.50;;;;;;5106459;28;20028;-34
2022/07/16 10:14:09;;;;;;;0.98;0.57;;;20.20;78.70;;;;;;5107373;28;20566;-37
2022/07/16 10:16:47;;;;;;;1.90;0.88;;;20.30;78.40;;;;;;5105876;28;20035;-36
2022/07/16 10:19:14;;;;;;;3.05;0.90;;;20.30;78.40;;;;;;5089551;28;20091;-35
2022/07/16 10:21:40;;;;;;;0.95;0.60;;;20.30;78.00;;;;;;5106841;28;20921;-36
2022/07/16 10:24:15;;;;;;;3.05;0.70;;;20.30;78.10;;;;;;5106615;28;20036;-35
2022/07/16 10:26:41;;;;;;;1.98;0.95;;;20.30;78.50;;;;;;5103020;28;20072;-35
2022/07/16 10:29:07;;;;;;;1.17;0.50;;;20.30;78.70;;;;;;5106945;28;20027;-36
2022/07/16 10:31:39;;;;;;;1.67;0.60;;;20.30;77.60;;;;;;5105911;28;20615;-36
2022/07/16 10:34:16;;;;;;;2.08;1.40;;;20.30;76.70;;;;;;5105352;28;20066;-35
2022/07/16 10:36:50;;;;;;;2.17;0.70;;;20.30;77.00;;;;;;5105140;28;20479;-35
2022/07/16 10:39:17;;;;;;;1.65;0.70;;;20.30;77.40;;;;;;5106080;28;20042;-35
2022/07/16 10:42:15;;;;;;;2.47;0.70;;;20.40;76.90;;;;;;5105382;28;20107;-35
2022/07/16 10:44:44;;;;;;;2.53;0.80;;;20.40;77.50;;;;;;5091090;28;20588;-35
2022/07/16 10:47:10;;;;;;;2.72;0.82;;;20.40;77.90;;;;;;5105064;28;20022;-35
2022/07/16 10:49:36;;;;;;;3.72;0.90;;;20.40;77.80;;;;;;5106628;28;20084;-35
2022/07/16 10:52:10;;;;;;;3.80;0.70;;;20.40;77.90;;;;;;5106166;28;20016;-34
2022/07/16 10:54:40;;;;;;;2.08;0.80;;;20.40;78.30;;;;;;5104982;28;20027;-35
2022/07/16 10:57:13;;;;;;;3.35;0.90;;;20.50;77.80;;;;;;5105855;28;20028;-35
2022/07/16 10:59:40;;;;;;;2.03;0.50;;;20.50;77.40;;;;;;5106086;28;20102;-35
2022/07/16 11:02:08;;;;;;;2.35;0.60;;;20.70;77.10;;;;;;5105624;28;20023;-36
2022/07/16 11:04:37;;;;;;;1.15;0.68;;;20.80;76.80;;;;;;5105112;28;20544;-36
2022/07/16 11:07:12;;;;;;;2.95;0.73;;;20.80;76.80;;;;;;5105251;28;20028;-37
2022/07/16 11:09:41;;;;;;;1.67;0.70;;;20.80;76.50;;;;;;5106152;28;20028;-38
2022/07/16 11:12:08;;;;;;;2.60;0.68;;;20.80;77.00;;;;;;5105814;28;20535;-36
2022/07/16 11:14:38;;;;;;;2.28;0.57;;;21.00;77.00;;;;;;5104469;28;20490;-34
2022/07/16 11:17:04;;;;;;;2.53;0.80;;;21.10;76.90;;;;;;5105553;28;20024;-35
2022/07/16 11:19:34;;;;;;;3.90;0.93;;;21.20;76.60;;;;;;5106144;28;20047;-34
2022/07/16 11:22:01;;;;;;;2.83;0.95;;;21.10;77.10;;;;;;5104778;28;20070;-35
2022/07/16 11:24:28;;;;;;;2.55;0.60;;;21.10;77.00;;;;;;5104848;28;20028;-35
2022/07/16 11:26:55;;;;;;;2.58;0.70;;;21.10;77.10;;;;;;5105722;28;20019;-34
2022/07/16 11:29:24;;;;;;;1.15;0.60;;;21.10;76.60;;;;;;5102973;28;20077;-35
2022/07/16 11:31:53;;;;;;;0.85;0.47;;;21.10;77.00;;;;;;5105575;28;20104;-36
2022/07/16 11:34:19;;;;;;;2.53;0.73;;;21.20;77.00;;;;;;5094697;28;20051;-35
2022/07/16 11:36:50;;;;;;;0.95;0.47;;;21.30;75.90;;;;;;5104063;28;20039;-36
2022/07/16 11:39:18;;;;;;;3.05;0.90;;;21.30;76.20;;;;;;5105213;28;20031;-35
2022/07/16 11:41:46;;;;;;;3.85;0.70;;;21.30;76.00;;;;;;5105339;28;20035;-35
2022/07/16 11:44:30;;;;;;;3.50;0.70;;;21.20;73.80;;;;;;5100987;28;20027;-35
2022/07/16 11:47:04;;;;;;;4.78;0.70;;;21.10;74.10;;;;;;5105143;28;20131;-34
2022/07/16 11:49:37;;;;;;;1.52;0.60;;;21.10;74.50;;;;;;5104223;28;20027;-34
2022/07/16 11:52:09;;;;;;;1.63;0.70;;;21.20;74.80;;;;;;5105298;28;20023;-34
2022/07/16 11:54:40;;;;;;;1.77;0.60;;;21.30;75.10;;;;;;5101275;28;20028;-35
2022/07/16 11:57:11;;;;;;;1.40;0.60;;;21.40;74.50;;;;;;5104951;28;20023;-35
2022/07/16 11:59:47;;;;;;;2.80;0.60;;;21.40;75.00;;;;;;5103858;28;20503;-35
2022/07/16 12:02:14;;;;;;;1.40;0.35;;;21.30;74.50;;;;;;5105358;28;20051;-34
2022/07/16 12:04:42;;;;;;;2.03;0.50;;;21.30;74.50;;;;;;5091888;28;20031;-34
2022/07/16 12:07:24;;;;;;;4.50;0.60;;;21.30;74.90;;;;;;5105062;28;20046;-34
2022/07/16 12:09:50;;;;;;;;;;;21.30;74.80;;;;;;5105769;28;20023;-35
2022/07/16 12:12:22;;;;;;;2.70;0.60;;;21.30;73.70;;;;;;5104642;28;19915;-35
2022/07/16 12:14:50;;;;;;;1.98;0.77;;;21.40;73.40;;;;;;5104839;28;20044;-35
2022/07/16 12:17:24;;;;;;;3.78;0.90;;;21.40;73.50;;;;;;5104574;28;20035;-40
2022/07/16 12:20:05;;;;;;;3.70;0.85;;;21.40;73.40;;;;;;5105008;28;20020;-34
2022/07/16 12:22:56;;;;;;;1.02;0.50;;;21.40;72.90;;;;;;5105773;28;20047;-35
2022/07/16 12:25:27;;;;;;;1.33;0.68;;;21.40;73.50;;;;;;5104002;28;20031;-35
2022/07/16 12:28:03;;;;;;;2.33;0.70;;;21.50;73.60;;;;;;5105264;28;20112;-35
2022/07/16 12:31:05;;;;;;;1.38;0.57;;;21.60;73.50;;;;;;5104756;28;20394;-35
2022/07/16 12:33:30;;;;;;;3.72;0.98;;;21.60;73.40;;;;;;5047041;28;20043;-35
2022/07/16 12:35:56;;;;;;;1.90;0.73;;;21.60;73.20;;;;;;5104535;28;20035;-35
2022/07/16 12:38:36;;;;;;;1.83;0.60;;;21.50;72.80;;;;;;5104454;28;20449;-35
2022/07/16 12:41:02;;;;;;;1.90;0.70;;;21.40;72.30;;;;;;5105320;28;20051;-35
2022/07/16 12:43:27;;;;;;;2.72;0.85;;;21.40;73.00;;;;;;5104542;28;20467;-34
2022/07/16 12:45:53;;;;;;;2.38;0.52;;;21.40;73.40;;;;;;5103625;28;20028;-35
2022/07/16 12:48:18;;;;;;;2.85;0.70;;;21.40;73.30;;;;;;5104344;28;20472;-35
2022/07/16 12:50:44;;;;;;;3.10;1.05;;;21.40;71.30;;;;;;5104332;28;20027;-34
2022/07/16 12:53:09;;;;;;;2.35;0.80;;;21.40;71.60;;;;;;5104733;28;20487;-35
2022/07/16 13:01:03;;;;;;;3.67;0.77;;;21.50;72.10;;;;;;5108237;28;20057;-36